sensor_id;sensor_type;location;lat;lon;timestamp;P1;durP1;ratioP1;P2;durP2;ratioP2
34369;SDS011;20635;55.812;37.560;2023-09-18T00:00:47;2.63;;;2.40;;
34369;SDS011;20635;55.812;37.560;2023-09-18T00:03:20;2.58;;;2.33;;
34369;SDS011;20635;55.812;37.560;2023-09-18T00:05:52;3.08;;;2.10;;
34369;SDS011;20635;55.812;37.560;2023-09-18T00:08:19;18.27;;;3.10;;
34369;SDS011;20635;55.812;37.560;2023-09-18T00:10:49;12.25;;;2.33;;
34369;SDS011;20635;55.812;37.560;2023-09-18T00:13:17;5.03;;;2.13;;
34369;SDS011;20635;55.812;37.560;2023-09-18T00:15:43;3.67;;;1.92;;
34369;SDS011;20635;55.812;37.560;2023-09-18T00:18:15;8.00;;;2.40;;
34369;SDS011;20635;55.812;37.560;2023-09-18T00:20:42;5.22;;;2.65;;
34369;SDS011;20635;55.812;37.560;2023-09-18T00:23:08;5.75;;;2.25;;
34369;SDS011;20635;55.812;37.560;2023-09-18T00:25:35;3.45;;;2.28;;
34369;SDS011;20635;55.812;37.560;2023-09-18T00:28:02;4.78;;;2.50;;
34369;SDS011;20635;55.812;37.560;2023-09-18T00:30:28;4.35;;;2.20;;
34369;SDS011;20635;55.812;37.560;2023-09-18T00:32:54;5.00;;;1.92;;
34369;SDS011;20635;55.812;37.560;2023-09-18T00:35:20;2.78;;;2.20;;
34369;SDS011;20635;55.812;37.560;2023-09-18T00:37:47;3.25;;;2.22;;
34369;SDS011;20635;55.812;37.560;2023-09-18T00:40:14;4.32;;;2.30;;
34369;SDS011;20635;55.812;37.560;2023-09-18T00:42:40;2.47;;;2.10;;
34369;SDS011;20635;55.812;37.560;2023-09-18T00:45:06;4.47;;;3.03;;
34369;SDS011;20635;55.812;37.560;2023-09-18T00:47:33;4.00;;;2.00;;
34369;SDS011;20635;55.812;37.560;2023-09-18T00:50:02;2.67;;;1.80;;
34369;SDS011;20635;55.812;37.560;2023-09-18T00:52:30;3.55;;;2.08;;
34369;SDS011;20635;55.812;37.560;2023-09-18T00:54:57;2.13;;;1.92;;
34369;SDS011;20635;55.812;37.560;2023-09-18T00:57:23;2.40;;;1.90;;
34369;SDS011;20635;55.812;37.560;2023-09-18T00:59:49;3.25;;;2.25;;
34369;SDS011;20635;55.812;37.560;2023-09-18T01:02:16;2.28;;;2.03;;
34369;SDS011;20635;55.812;37.560;2023-09-18T01:04:42;2.20;;;1.88;;
34369;SDS011;20635;55.812;37.560;2023-09-18T01:07:10;2.38;;;2.10;;
34369;SDS011;20635;55.812;37.560;2023-09-18T01:09:36;2.17;;;1.98;;
34369;SDS011;20635;55.812;37.560;2023-09-18T01:12:09;2.85;;;2.00;;
34369;SDS011;20635;55.812;37.560;2023-09-18T01:17:14;1.88;;;1.77;;
34369;SDS011;20635;55.812;37.560;2023-09-18T01:19:42;2.65;;;2.05;;
34369;SDS011;20635;55.812;37.560;2023-09-18T01:22:11;2.83;;;2.00;;
34369;SDS011;20635;55.812;37.560;2023-09-18T01:24:39;2.17;;;1.77;;
34369;SDS011;20635;55.812;37.560;2023-09-18T01:27:07;2.53;;;2.30;;
34369;SDS011;20635;55.812;37.560;2023-09-18T01:29:35;1.83;;;1.63;;
34369;SDS011;20635;55.812;37.560;2023-09-18T01:32:01;4.03;;;2.50;;
34369;SDS011;20635;55.812;37.560;2023-09-18T01:34:38;2.03;;;1.83;;
34369;SDS011;20635;55.812;37.560;2023-09-18T01:37:07;2.25;;;2.05;;
34369;SDS011;20635;55.812;37.560;2023-09-18T01:39:36;2.70;;;2.50;;
34369;SDS011;20635;55.812;37.560;2023-09-18T01:42:03;2.17;;;1.75;;
34369;SDS011;20635;55.812;37.560;2023-09-18T01:44:35;2.30;;;2.10;;
34369;SDS011;20635;55.812;37.560;2023-09-18T01:47:13;2.20;;;1.90;;
34369;SDS011;20635;55.812;37.560;2023-09-18T01:49:41;2.28;;;1.98;;
34369;SDS011;20635;55.812;37.560;2023-09-18T01:52:08;3.08;;;2.15;;
34369;SDS011;20635;55.812;37.560;2023-09-18T01:54:35;2.25;;;2.05;;
34369;SDS011;20635;55.812;37.560;2023-09-18T01:57:02;2.28;;;1.95;;
34369;SDS011;20635;55.812;37.560;2023-09-18T01:59:29;2.10;;;1.90;;
34369;SDS011;20635;55.812;37.560;2023-09-18T02:01:55;2.80;;;2.20;;
34369;SDS011;20635;55.812;37.560;2023-09-18T02:04:21;2.67;;;1.70;;
34369;SDS011;20635;55.812;37.560;2023-09-18T02:06:49;1.70;;;1.60;;
34369;SDS011;20635;55.812;37.560;2023-09-18T02:09:16;2.28;;;1.90;;
34369;SDS011;20635;55.812;37.560;2023-09-18T02:11:43;2.17;;;1.98;;
34369;SDS011;20635;55.812;37.560;2023-09-18T02:14:11;3.03;;;1.85;;
34369;SDS011;20635;55.812;37.560;2023-09-18T02:16:38;1.83;;;1.73;;
34369;SDS011;20635;55.812;37.560;2023-09-18T02:19:14;2.95;;;1.83;;
34369;SDS011;20635;55.812;37.560;2023-09-18T02:21:41;1.83;;;1.73;;
34369;SDS011;20635;55.812;37.560;2023-09-18T02:24:08;2.10;;;1.90;;
34369;SDS011;20635;55.812;37.560;2023-09-18T02:26:34;2.38;;;2.13;;
34369;SDS011;20635;55.812;37.560;2023-09-18T02:29:02;3.53;;;1.90;;
34369;SDS011;20635;55.812;37.560;2023-09-18T02:31:30;3.33;;;2.10;;
34369;SDS011;20635;55.812;37.560;2023-09-18T02:33:55;3.22;;;1.85;;
34369;SDS011;20635;55.812;37.560;2023-09-18T02:36:21;3.80;;;1.95;;
34369;SDS011;20635;55.812;37.560;2023-09-18T02:38:48;3.38;;;2.67;;
34369;SDS011;20635;55.812;37.560;2023-09-18T02:41:14;2.38;;;2.00;;
34369;SDS011;20635;55.812;37.560;2023-09-18T02:43:40;2.97;;;2.22;;
34369;SDS011;20635;55.812;37.560;2023-09-18T02:46:06;2.70;;;1.90;;
34369;SDS011;20635;55.812;37.560;2023-09-18T02:48:32;3.13;;;2.10;;
34369;SDS011;20635;55.812;37.560;2023-09-18T02:50:59;2.25;;;2.05;;
34369;SDS011;20635;55.812;37.560;2023-09-18T02:53:25;1.70;;;1.60;;
34369;SDS011;20635;55.812;37.560;2023-09-18T02:55:53;2.38;;;1.90;;
34369;SDS011;20635;55.812;37.560;2023-09-18T02:58:20;3.55;;;1.70;;
34369;SDS011;20635;55.812;37.560;2023-09-18T03:00:49;4.88;;;1.90;;
34369;SDS011;20635;55.812;37.560;2023-09-18T03:03:16;6.07;;;2.17;;
34369;SDS011;20635;55.812;37.560;2023-09-18T03:05:43;6.97;;;1.90;;
34369;SDS011;20635;55.812;37.560;2023-09-18T03:08:10;3.50;;;1.80;;
34369;SDS011;20635;55.812;37.560;2023-09-18T03:10:38;2.33;;;2.13;;
34369;SDS011;20635;55.812;37.560;2023-09-18T03:13:06;2.05;;;1.85;;
34369;SDS011;20635;55.812;37.560;2023-09-18T03:15:33;2.00;;;1.60;;
34369;SDS011;20635;55.812;37.560;2023-09-18T03:18:00;2.95;;;2.03;;
34369;SDS011;20635;55.812;37.560;2023-09-18T03:20:27;2.15;;;1.70;;
34369;SDS011;20635;55.812;37.560;2023-09-18T03:22:59;4.00;;;2.00;;
34369;SDS011;20635;55.812;37.560;2023-09-18T03:25:26;2.80;;;2.17;;
34369;SDS011;20635;55.812;37.560;2023-09-18T03:27:53;2.47;;;2.03;;
34369;SDS011;20635;55.812;37.560;2023-09-18T03:30:24;2.20;;;2.00;;
34369;SDS011;20635;55.812;37.560;2023-09-18T03:32:51;2.47;;;1.50;;
34369;SDS011;20635;55.812;37.560;2023-09-18T03:35:18;2.47;;;1.83;;
34369;SDS011;20635;55.812;37.560;2023-09-18T03:37:46;2.00;;;1.80;;
34369;SDS011;20635;55.812;37.560;2023-09-18T03:40:13;2.10;;;1.98;;
34369;SDS011;20635;55.812;37.560;2023-09-18T03:42:40;3.03;;;1.52;;
34369;SDS011;20635;55.812;37.560;2023-09-18T03:45:06;2.67;;;1.90;;
34369;SDS011;20635;55.812;37.560;2023-09-18T03:47:40;3.53;;;2.05;;
34369;SDS011;20635;55.812;37.560;2023-09-18T03:50:08;1.70;;;1.60;;
34369;SDS011;20635;55.812;37.560;2023-09-18T03:52:35;2.38;;;2.17;;
34369;SDS011;20635;55.812;37.560;2023-09-18T03:55:01;1.95;;;1.85;;
34369;SDS011;20635;55.812;37.560;2023-09-18T03:57:27;2.80;;;1.70;;
34369;SDS011;20635;55.812;37.560;2023-09-18T03:59:53;2.08;;;1.85;;
34369;SDS011;20635;55.812;37.560;2023-09-18T04:02:21;3.05;;;1.77;;
34369;SDS011;20635;55.812;37.560;2023-09-18T04:04:50;4.90;;;1.83;;
34369;SDS011;20635;55.812;37.560;2023-09-18T04:07:17;2.15;;;1.85;;
34369;SDS011;20635;55.812;37.560;2023-09-18T04:09:44;2.35;;;1.60;;
34369;SDS011;20635;55.812;37.560;2023-09-18T04:12:10;1.80;;;1.70;;
34369;SDS011;20635;55.812;37.560;2023-09-18T04:14:37;2.50;;;1.35;;
34369;SDS011;20635;55.812;37.560;2023-09-18T04:17:03;2.92;;;1.85;;
34369;SDS011;20635;55.812;37.560;2023-09-18T04:19:28;3.05;;;2.10;;
34369;SDS011;20635;55.812;37.560;2023-09-18T04:21:55;2.13;;;1.92;;
34369;SDS011;20635;55.812;37.560;2023-09-18T04:24:21;2.90;;;1.60;;
34369;SDS011;20635;55.812;37.560;2023-09-18T04:26:47;4.18;;;2.00;;
34369;SDS011;20635;55.812;37.560;2023-09-18T04:29:16;2.80;;;2.05;;
34369;SDS011;20635;55.812;37.560;2023-09-18T04:31:42;2.75;;;1.67;;
34369;SDS011;20635;55.812;37.560;2023-09-18T04:34:09;3.00;;;1.92;;
34369;SDS011;20635;55.812;37.560;2023-09-18T04:36:36;3.15;;;2.03;;
34369;SDS011;20635;55.812;37.560;2023-09-18T04:39:03;3.45;;;1.98;;
34369;SDS011;20635;55.812;37.560;2023-09-18T04:41:33;2.70;;;1.85;;
34369;SDS011;20635;55.812;37.560;2023-09-18T04:44:00;2.70;;;1.60;;
34369;SDS011;20635;55.812;37.560;2023-09-18T04:46:30;3.42;;;1.90;;
34369;SDS011;20635;55.812;37.560;2023-09-18T04:48:56;4.80;;;2.10;;
34369;SDS011;20635;55.812;37.560;2023-09-18T04:51:22;2.05;;;1.70;;
34369;SDS011;20635;55.812;37.560;2023-09-18T04:53:48;2.45;;;1.80;;
34369;SDS011;20635;55.812;37.560;2023-09-18T04:56:14;4.90;;;2.10;;
34369;SDS011;20635;55.812;37.560;2023-09-18T04:58:40;2.92;;;1.92;;
34369;SDS011;20635;55.812;37.560;2023-09-18T05:01:06;11.30;;;2.65;;
34369;SDS011;20635;55.812;37.560;2023-09-18T05:03:34;11.88;;;2.53;;
34369;SDS011;20635;55.812;37.560;2023-09-18T05:06:00;6.75;;;2.17;;
34369;SDS011;20635;55.812;37.560;2023-09-18T05:08:26;6.95;;;2.25;;
34369;SDS011;20635;55.812;37.560;2023-09-18T05:10:52;6.88;;;2.20;;
34369;SDS011;20635;55.812;37.560;2023-09-18T05:13:18;5.68;;;2.10;;
34369;SDS011;20635;55.812;37.560;2023-09-18T05:15:44;4.95;;;2.13;;
34369;SDS011;20635;55.812;37.560;2023-09-18T05:18:11;4.53;;;2.20;;
34369;SDS011;20635;55.812;37.560;2023-09-18T05:20:37;3.95;;;2.28;;
34369;SDS011;20635;55.812;37.560;2023-09-18T05:23:02;6.50;;;2.33;;
34369;SDS011;20635;55.812;37.560;2023-09-18T05:25:29;4.43;;;2.13;;
34369;SDS011;20635;55.812;37.560;2023-09-18T05:27:57;3.38;;;1.90;;
34369;SDS011;20635;55.812;37.560;2023-09-18T05:30:25;4.18;;;2.20;;
34369;SDS011;20635;55.812;37.560;2023-09-18T05:33:00;3.08;;;2.10;;
34369;SDS011;20635;55.812;37.560;2023-09-18T05:35:39;5.23;;;2.23;;
34369;SDS011;20635;55.812;37.560;2023-09-18T05:38:07;4.93;;;2.13;;
34369;SDS011;20635;55.812;37.560;2023-09-18T05:40:36;2.83;;;1.90;;
34369;SDS011;20635;55.812;37.560;2023-09-18T05:43:02;3.45;;;2.00;;
34369;SDS011;20635;55.812;37.560;2023-09-18T05:45:28;2.97;;;2.30;;
34369;SDS011;20635;55.812;37.560;2023-09-18T05:47:55;3.15;;;2.20;;
34369;SDS011;20635;55.812;37.560;2023-09-18T05:50:29;3.17;;;2.13;;
34369;SDS011;20635;55.812;37.560;2023-09-18T05:52:57;4.60;;;1.92;;
34369;SDS011;20635;55.812;37.560;2023-09-18T05:55:35;4.28;;;2.28;;
34369;SDS011;20635;55.812;37.560;2023-09-18T05:58:01;3.33;;;2.38;;
34369;SDS011;20635;55.812;37.560;2023-09-18T06:00:29;3.28;;;2.38;;
34369;SDS011;20635;55.812;37.560;2023-09-18T06:02:59;2.88;;;1.98;;
34369;SDS011;20635;55.812;37.560;2023-09-18T06:05:50;3.83;;;2.05;;
34369;SDS011;20635;55.812;37.560;2023-09-18T06:08:16;3.72;;;2.28;;
34369;SDS011;20635;55.812;37.560;2023-09-18T06:10:42;2.67;;;1.88;;
34369;SDS011;20635;55.812;37.560;2023-09-18T06:13:08;4.93;;;2.20;;
34369;SDS011;20635;55.812;37.560;2023-09-18T06:15:34;2.30;;;1.80;;
34369;SDS011;20635;55.812;37.560;2023-09-18T06:18:00;2.88;;;1.95;;
34369;SDS011;20635;55.812;37.560;2023-09-18T06:20:26;4.72;;;1.95;;
34369;SDS011;20635;55.812;37.560;2023-09-18T06:22:52;3.78;;;2.10;;
34369;SDS011;20635;55.812;37.560;2023-09-18T06:25:17;3.35;;;1.70;;
34369;SDS011;20635;55.812;37.560;2023-09-18T06:27:44;4.78;;;1.83;;
34369;SDS011;20635;55.812;37.560;2023-09-18T06:30:11;2.85;;;2.00;;
34369;SDS011;20635;55.812;37.560;2023-09-18T06:32:37;2.85;;;1.92;;
34369;SDS011;20635;55.812;37.560;2023-09-18T06:35:03;2.03;;;1.85;;
34369;SDS011;20635;55.812;37.560;2023-09-18T06:37:30;2.65;;;1.80;;
34369;SDS011;20635;55.812;37.560;2023-09-18T06:39:55;2.22;;;2.00;;
34369;SDS011;20635;55.812;37.560;2023-09-18T06:42:24;2.63;;;2.00;;
34369;SDS011;20635;55.812;37.560;2023-09-18T06:47:22;2.67;;;2.00;;
34369;SDS011;20635;55.812;37.560;2023-09-18T06:49:49;2.67;;;2.05;;
34369;SDS011;20635;55.812;37.560;2023-09-18T06:52:16;2.97;;;2.13;;
34369;SDS011;20635;55.812;37.560;2023-09-18T06:54:42;4.38;;;2.50;;
34369;SDS011;20635;55.812;37.560;2023-09-18T06:57:09;3.10;;;1.98;;
34369;SDS011;20635;55.812;37.560;2023-09-18T06:59:35;2.72;;;2.00;;
34369;SDS011;20635;55.812;37.560;2023-09-18T07:02:01;3.22;;;1.92;;
34369;SDS011;20635;55.812;37.560;2023-09-18T07:04:28;2.45;;;1.90;;
34369;SDS011;20635;55.812;37.560;2023-09-18T07:06:54;2.67;;;1.80;;
34369;SDS011;20635;55.812;37.560;2023-09-18T07:09:21;1.88;;;1.77;;
34369;SDS011;20635;55.812;37.560;2023-09-18T07:11:48;2.75;;;1.73;;
34369;SDS011;20635;55.812;37.560;2023-09-18T07:14:14;2.28;;;1.60;;
34369;SDS011;20635;55.812;37.560;2023-09-18T07:16:41;2.28;;;1.90;;
34369;SDS011;20635;55.812;37.560;2023-09-18T07:19:06;2.17;;;1.88;;
34369;SDS011;20635;55.812;37.560;2023-09-18T07:21:36;3.08;;;1.92;;
34369;SDS011;20635;55.812;37.560;2023-09-18T07:24:03;2.42;;;1.70;;
34369;SDS011;20635;55.812;37.560;2023-09-18T07:26:29;2.05;;;1.85;;
34369;SDS011;20635;55.812;37.560;2023-09-18T07:28:55;1.98;;;1.77;;
34369;SDS011;20635;55.812;37.560;2023-09-18T07:31:22;2.35;;;1.70;;
34369;SDS011;20635;55.812;37.560;2023-09-18T07:33:48;2.83;;;1.63;;
34369;SDS011;20635;55.812;37.560;2023-09-18T07:36:14;2.97;;;1.83;;
34369;SDS011;20635;55.812;37.560;2023-09-18T07:38:40;2.08;;;1.88;;
34369;SDS011;20635;55.812;37.560;2023-09-18T07:41:08;1.90;;;1.50;;
34369;SDS011;20635;55.812;37.560;2023-09-18T07:43:35;1.80;;;1.63;;
34369;SDS011;20635;55.812;37.560;2023-09-18T07:46:00;2.15;;;1.80;;
34369;SDS011;20635;55.812;37.560;2023-09-18T07:48:27;2.95;;;1.88;;
34369;SDS011;20635;55.812;37.560;2023-09-18T07:50:53;1.98;;;1.77;;
34369;SDS011;20635;55.812;37.560;2023-09-18T07:53:20;1.98;;;1.77;;
34369;SDS011;20635;55.812;37.560;2023-09-18T07:55:47;2.03;;;1.65;;
34369;SDS011;20635;55.812;37.560;2023-09-18T07:58:14;2.25;;;1.70;;
34369;SDS011;20635;55.812;37.560;2023-09-18T08:00:40;2.53;;;1.90;;
34369;SDS011;20635;55.812;37.560;2023-09-18T08:03:06;2.33;;;1.73;;
34369;SDS011;20635;55.812;37.560;2023-09-18T08:05:32;2.13;;;1.88;;
34369;SDS011;20635;55.812;37.560;2023-09-18T08:07:58;2.05;;;1.80;;
34369;SDS011;20635;55.812;37.560;2023-09-18T08:12:55;1.98;;;1.67;;
34369;SDS011;20635;55.812;37.560;2023-09-18T08:15:21;1.95;;;1.70;;
34369;SDS011;20635;55.812;37.560;2023-09-18T08:17:47;1.98;;;1.70;;
34369;SDS011;20635;55.812;37.560;2023-09-18T08:20:15;2.15;;;1.75;;
34369;SDS011;20635;55.812;37.560;2023-09-18T08:22:42;1.52;;;1.40;;
34369;SDS011;20635;55.812;37.560;2023-09-18T08:25:09;1.65;;;1.55;;
34369;SDS011;20635;55.812;37.560;2023-09-18T08:27:39;1.85;;;1.70;;
34369;SDS011;20635;55.812;37.560;2023-09-18T08:30:13;3.25;;;1.98;;
34369;SDS011;20635;55.812;37.560;2023-09-18T08:32:40;1.80;;;1.70;;
34369;SDS011;20635;55.812;37.560;2023-09-18T08:35:07;2.25;;;1.60;;
34369;SDS011;20635;55.812;37.560;2023-09-18T08:37:34;2.10;;;1.90;;
34369;SDS011;20635;55.812;37.560;2023-09-18T08:40:00;1.60;;;1.50;;
34369;SDS011;20635;55.812;37.560;2023-09-18T08:42:27;2.85;;;1.70;;
34369;SDS011;20635;55.812;37.560;2023-09-18T08:44:58;2.10;;;1.70;;
34369;SDS011;20635;55.812;37.560;2023-09-18T08:47:25;2.05;;;1.80;;
34369;SDS011;20635;55.812;37.560;2023-09-18T08:49:52;2.10;;;1.80;;
34369;SDS011;20635;55.812;37.560;2023-09-18T08:52:19;2.63;;;1.83;;
34369;SDS011;20635;55.812;37.560;2023-09-18T08:54:46;2.28;;;1.92;;
34369;SDS011;20635;55.812;37.560;2023-09-18T08:57:13;2.65;;;1.95;;
34369;SDS011;20635;55.812;37.560;2023-09-18T08:59:39;2.15;;;1.65;;
34369;SDS011;20635;55.812;37.560;2023-09-18T09:02:07;2.47;;;2.00;;
34369;SDS011;20635;55.812;37.560;2023-09-18T09:04:37;2.28;;;2.08;;
34369;SDS011;20635;55.812;37.560;2023-09-18T09:07:04;2.88;;;2.00;;
34369;SDS011;20635;55.812;37.560;2023-09-18T09:09:30;2.50;;;2.30;;
34369;SDS011;20635;55.812;37.560;2023-09-18T09:11:56;2.70;;;2.35;;
34369;SDS011;20635;55.812;37.560;2023-09-18T09:14:22;2.85;;;2.15;;
34369;SDS011;20635;55.812;37.560;2023-09-18T09:16:53;2.35;;;2.15;;
34369;SDS011;20635;55.812;37.560;2023-09-18T09:19:29;2.38;;;2.17;;
34369;SDS011;20635;55.812;37.560;2023-09-18T09:21:56;4.05;;;2.83;;
34369;SDS011;20635;55.812;37.560;2023-09-18T09:24:43;2.92;;;2.63;;
34369;SDS011;20635;55.812;37.560;2023-09-18T09:27:09;3.63;;;2.65;;
34369;SDS011;20635;55.812;37.560;2023-09-18T09:29:36;3.30;;;3.00;;
34369;SDS011;20635;55.812;37.560;2023-09-18T09:32:16;3.10;;;2.80;;
34369;SDS011;20635;55.812;37.560;2023-09-18T09:34:43;3.25;;;2.63;;
34369;SDS011;20635;55.812;37.560;2023-09-18T09:37:10;3.65;;;3.10;;
34369;SDS011;20635;55.812;37.560;2023-09-18T09:39:46;4.22;;;3.38;;
34369;SDS011;20635;55.812;37.560;2023-09-18T09:42:19;3.40;;;3.10;;
34369;SDS011;20635;55.812;37.560;2023-09-18T09:45:01;4.07;;;3.13;;
34369;SDS011;20635;55.812;37.560;2023-09-18T09:47:33;4.10;;;3.42;;
34369;SDS011;20635;55.812;37.560;2023-09-18T09:50:08;3.53;;;3.15;;
34369;SDS011;20635;55.812;37.560;2023-09-18T09:52:40;3.78;;;3.40;;
34369;SDS011;20635;55.812;37.560;2023-09-18T09:57:57;4.40;;;3.88;;
34369;SDS011;20635;55.812;37.560;2023-09-18T10:00:29;4.00;;;3.53;;
34369;SDS011;20635;55.812;37.560;2023-09-18T10:02:58;4.57;;;3.78;;
34369;SDS011;20635;55.812;37.560;2023-09-18T10:05:27;3.88;;;3.42;;
34369;SDS011;20635;55.812;37.560;2023-09-18T10:07:58;4.43;;;3.80;;
34369;SDS011;20635;55.812;37.560;2023-09-18T10:10:29;4.30;;;3.90;;
34369;SDS011;20635;55.812;37.560;2023-09-18T10:13:00;4.03;;;3.63;;
34369;SDS011;20635;55.812;37.560;2023-09-18T10:15:31;4.43;;;4.03;;
34369;SDS011;20635;55.812;37.560;2023-09-18T10:18:08;4.18;;;3.78;;
34369;SDS011;20635;55.812;37.560;2023-09-18T10:20:42;3.83;;;3.53;;
34369;SDS011;20635;55.812;37.560;2023-09-18T10:23:12;4.05;;;3.65;;
34369;SDS011;20635;55.812;37.560;2023-09-18T10:25:50;3.78;;;3.42;;
34369;SDS011;20635;55.812;37.560;2023-09-18T10:28:21;4.15;;;3.75;;
34369;SDS011;20635;55.812;37.560;2023-09-18T10:30:50;4.78;;;4.28;;
34369;SDS011;20635;55.812;37.560;2023-09-18T10:33:17;4.40;;;4.00;;
34369;SDS011;20635;55.812;37.560;2023-09-18T10:35:43;5.13;;;4.50;;
34369;SDS011;20635;55.812;37.560;2023-09-18T10:38:13;5.25;;;3.75;;
34369;SDS011;20635;55.812;37.560;2023-09-18T10:40:41;4.97;;;4.22;;
34369;SDS011;20635;55.812;37.560;2023-09-18T10:43:09;5.75;;;4.30;;
34369;SDS011;20635;55.812;37.560;2023-09-18T10:45:36;5.32;;;4.22;;
34369;SDS011;20635;55.812;37.560;2023-09-18T10:48:04;4.65;;;4.10;;
34369;SDS011;20635;55.812;37.560;2023-09-18T10:50:34;4.60;;;4.00;;
34369;SDS011;20635;55.812;37.560;2023-09-18T10:53:00;4.95;;;4.03;;
34369;SDS011;20635;55.812;37.560;2023-09-18T10:55:27;4.65;;;3.80;;
34369;SDS011;20635;55.812;37.560;2023-09-18T10:57:57;6.53;;;4.03;;
34369;SDS011;20635;55.812;37.560;2023-09-18T11:00:25;4.10;;;3.70;;
34369;SDS011;20635;55.812;37.560;2023-09-18T11:02:53;4.07;;;3.67;;
34369;SDS011;20635;55.812;37.560;2023-09-18T11:05:34;4.30;;;3.90;;
34369;SDS011;20635;55.812;37.560;2023-09-18T11:11:09;7.32;;;3.95;;
34369;SDS011;20635;55.812;37.560;2023-09-18T11:13:41;4.65;;;4.15;;
34369;SDS011;20635;55.812;37.560;2023-09-18T11:21:28;4.28;;;3.88;;
34369;SDS011;20635;55.812;37.560;2023-09-18T11:24:02;4.80;;;3.88;;
34369;SDS011;20635;55.812;37.560;2023-09-18T11:26:37;4.85;;;3.92;;
34369;SDS011;20635;55.812;37.560;2023-09-18T11:29:08;4.90;;;4.10;;
34369;SDS011;20635;55.812;37.560;2023-09-18T11:31:43;4.60;;;4.20;;
34369;SDS011;20635;55.812;37.560;2023-09-18T11:36:54;4.88;;;4.38;;
34369;SDS011;20635;55.812;37.560;2023-09-18T11:39:37;4.65;;;4.03;;
34369;SDS011;20635;55.812;37.560;2023-09-18T11:42:20;4.22;;;3.75;;
34369;SDS011;20635;55.812;37.560;2023-09-18T11:44:54;4.43;;;3.97;;
34369;SDS011;20635;55.812;37.560;2023-09-18T11:47:24;4.70;;;4.25;;
34369;SDS011;20635;55.812;37.560;2023-09-18T11:49:52;4.20;;;3.80;;
34369;SDS011;20635;55.812;37.560;2023-09-18T11:52:20;5.03;;;4.32;;
34369;SDS011;20635;55.812;37.560;2023-09-18T11:54:55;5.25;;;4.00;;
34369;SDS011;20635;55.812;37.560;2023-09-18T11:57:23;4.65;;;4.25;;
34369;SDS011;20635;55.812;37.560;2023-09-18T11:59:50;4.65;;;4.07;;
34369;SDS011;20635;55.812;37.560;2023-09-18T12:02:26;4.80;;;4.25;;
34369;SDS011;20635;55.812;37.560;2023-09-18T12:04:54;3.95;;;3.55;;
34369;SDS011;20635;55.812;37.560;2023-09-18T12:07:20;4.57;;;4.10;;
34369;SDS011;20635;55.812;37.560;2023-09-18T12:09:46;5.10;;;4.60;;
34369;SDS011;20635;55.812;37.560;2023-09-18T12:12:12;4.13;;;3.72;;
34369;SDS011;20635;55.812;37.560;2023-09-18T12:14:40;4.47;;;4.07;;
34369;SDS011;20635;55.812;37.560;2023-09-18T12:17:07;5.03;;;4.55;;
34369;SDS011;20635;55.812;37.560;2023-09-18T12:19:34;4.22;;;3.83;;
34369;SDS011;20635;55.812;37.560;2023-09-18T12:22:00;4.45;;;4.05;;
34369;SDS011;20635;55.812;37.560;2023-09-18T12:24:27;4.32;;;3.92;;
34369;SDS011;20635;55.812;37.560;2023-09-18T12:26:54;4.40;;;4.00;;
34369;SDS011;20635;55.812;37.560;2023-09-18T12:29:20;4.28;;;3.88;;
34369;SDS011;20635;55.812;37.560;2023-09-18T12:31:46;4.40;;;4.00;;
34369;SDS011;20635;55.812;37.560;2023-09-18T12:34:13;4.80;;;4.30;;
34369;SDS011;20635;55.812;37.560;2023-09-18T12:36:44;6.07;;;4.50;;
34369;SDS011;20635;55.812;37.560;2023-09-18T12:39:14;4.72;;;4.20;;
34369;SDS011;20635;55.812;37.560;2023-09-18T12:41:44;4.25;;;3.85;;
34369;SDS011;20635;55.812;37.560;2023-09-18T12:44:10;4.55;;;4.15;;
34369;SDS011;20635;55.812;37.560;2023-09-18T12:46:40;4.30;;;3.70;;
34369;SDS011;20635;55.812;37.560;2023-09-18T12:49:19;3.28;;;2.97;;
34369;SDS011;20635;55.812;37.560;2023-09-18T12:51:56;4.07;;;3.78;;
34369;SDS011;20635;55.812;37.560;2023-09-18T12:54:40;4.22;;;3.58;;
34369;SDS011;20635;55.812;37.560;2023-09-18T12:57:19;3.85;;;3.55;;
34369;SDS011;20635;55.812;37.560;2023-09-18T12:59:45;5.00;;;4.05;;
34369;SDS011;20635;55.812;37.560;2023-09-18T13:02:16;3.63;;;3.33;;
34369;SDS011;20635;55.812;37.560;2023-09-18T13:04:53;3.75;;;3.42;;
34369;SDS011;20635;55.812;37.560;2023-09-18T13:07:20;4.82;;;4.13;;
34369;SDS011;20635;55.812;37.560;2023-09-18T13:10:05;4.25;;;3.80;;
34369;SDS011;20635;55.812;37.560;2023-09-18T13:12:53;4.00;;;3.60;;
34369;SDS011;20635;55.812;37.560;2023-09-18T13:15:27;4.32;;;3.97;;
34369;SDS011;20635;55.812;37.560;2023-09-18T13:17:56;4.38;;;3.65;;
34369;SDS011;20635;55.812;37.560;2023-09-18T13:20:26;4.30;;;3.88;;
34369;SDS011;20635;55.812;37.560;2023-09-18T13:22:55;4.60;;;4.10;;
34369;SDS011;20635;55.812;37.560;2023-09-18T13:25:23;4.53;;;3.95;;
34369;SDS011;20635;55.812;37.560;2023-09-18T13:27:59;4.47;;;3.83;;
34369;SDS011;20635;55.812;37.560;2023-09-18T13:30:34;4.50;;;3.80;;
34369;SDS011;20635;55.812;37.560;2023-09-18T13:33:05;4.03;;;3.60;;
34369;SDS011;20635;55.812;37.560;2023-09-18T13:35:42;3.80;;;3.40;;
34369;SDS011;20635;55.812;37.560;2023-09-18T13:38:09;4.57;;;4.18;;
34369;SDS011;20635;55.812;37.560;2023-09-18T13:40:37;4.22;;;3.83;;
34369;SDS011;20635;55.812;37.560;2023-09-18T13:43:07;3.90;;;3.50;;
34369;SDS011;20635;55.812;37.560;2023-09-18T13:45:34;3.67;;;3.38;;
34369;SDS011;20635;55.812;37.560;2023-09-18T13:48:01;4.07;;;3.67;;
34369;SDS011;20635;55.812;37.560;2023-09-18T13:50:27;4.13;;;3.60;;
34369;SDS011;20635;55.812;37.560;2023-09-18T13:52:53;4.07;;;3.42;;
34369;SDS011;20635;55.812;37.560;2023-09-18T13:55:19;3.95;;;3.60;;
34369;SDS011;20635;55.812;37.560;2023-09-18T13:57:45;4.10;;;3.63;;
34369;SDS011;20635;55.812;37.560;2023-09-18T14:00:12;4.18;;;3.35;;
34369;SDS011;20635;55.812;37.560;2023-09-18T14:02:40;3.50;;;3.20;;
34369;SDS011;20635;55.812;37.560;2023-09-18T14:05:07;4.05;;;3.42;;
34369;SDS011;20635;55.812;37.560;2023-09-18T14:07:34;3.80;;;3.50;;
34369;SDS011;20635;55.812;37.560;2023-09-18T14:10:01;3.58;;;3.20;;
34369;SDS011;20635;55.812;37.560;2023-09-18T14:12:29;3.90;;;3.50;;
34369;SDS011;20635;55.812;37.560;2023-09-18T14:14:56;3.63;;;3.33;;
34369;SDS011;20635;55.812;37.560;2023-09-18T14:17:22;4.28;;;3.88;;
34369;SDS011;20635;55.812;37.560;2023-09-18T14:19:48;3.70;;;3.28;;
34369;SDS011;20635;55.812;37.560;2023-09-18T14:22:14;4.03;;;3.60;;
34369;SDS011;20635;55.812;37.560;2023-09-18T14:24:40;3.30;;;3.00;;
34369;SDS011;20635;55.812;37.560;2023-09-18T14:27:06;3.22;;;2.92;;
34369;SDS011;20635;55.812;37.560;2023-09-18T14:29:36;4.72;;;3.72;;
34369;SDS011;20635;55.812;37.560;2023-09-18T14:32:02;3.70;;;3.35;;
34369;SDS011;20635;55.812;37.560;2023-09-18T14:34:29;3.53;;;3.22;;
34369;SDS011;20635;55.812;37.560;2023-09-18T14:36:56;3.30;;;3.00;;
34369;SDS011;20635;55.812;37.560;2023-09-18T14:39:22;4.32;;;3.35;;
34369;SDS011;20635;55.812;37.560;2023-09-18T14:41:48;3.33;;;3.03;;
34369;SDS011;20635;55.812;37.560;2023-09-18T14:44:14;3.60;;;3.30;;
34369;SDS011;20635;55.812;37.560;2023-09-18T14:46:40;3.22;;;2.92;;
34369;SDS011;20635;55.812;37.560;2023-09-18T14:49:07;3.03;;;2.80;;
34369;SDS011;20635;55.812;37.560;2023-09-18T14:51:33;3.45;;;3.15;;
34369;SDS011;20635;55.812;37.560;2023-09-18T14:54:00;3.30;;;3.00;;
34369;SDS011;20635;55.812;37.560;2023-09-18T14:56:26;4.22;;;3.00;;
34369;SDS011;20635;55.812;37.560;2023-09-18T14:58:53;3.50;;;3.20;;
34369;SDS011;20635;55.812;37.560;2023-09-18T15:01:21;3.38;;;3.08;;